sensor_id;sensor_type;location;lat;lon;timestamp;temperature;humidity
67196;DHT22;54122;53.538;49.366;2022-09-29T00:00:32;13.30;80.20
67196;DHT22;54122;53.538;49.366;2022-09-29T00:02:59;13.30;80.40
67196;DHT22;54122;53.538;49.366;2022-09-29T00:05:26;13.30;80.60
67196;DHT22;54122;53.538;49.366;2022-09-29T00:07:52;13.30;80.80
67196;DHT22;54122;53.538;49.366;2022-09-29T00:10:18;13.30;80.90
67196;DHT22;54122;53.538;49.366;2022-09-29T00:12:44;13.20;81.10
67196;DHT22;54122;53.538;49.366;2022-09-29T00:15:10;13.20;81.20
67196;DHT22;54122;53.538;49.366;2022-09-29T00:17:36;13.20;81.20
67196;DHT22;54122;53.538;49.366;2022-09-29T00:20:02;13.20;81.30
67196;DHT22;54122;53.538;49.366;2022-09-29T00:22:29;13.20;81.40
67196;DHT22;54122;53.538;49.366;2022-09-29T00:24:55;13.20;81.60
67196;DHT22;54122;53.538;49.366;2022-09-29T00:27:21;13.10;81.50
67196;DHT22;54122;53.538;49.366;2022-09-29T00:29:47;13.10;81.40
67196;DHT22;54122;53.538;49.366;2022-09-29T00:32:13;13.10;81.50
67196;DHT22;54122;53.538;49.366;2022-09-29T00:34:39;13.20;81.50
67196;DHT22;54122;53.538;49.366;2022-09-29T00:37:05;13.10;81.40
67196;DHT22;54122;53.538;49.366;2022-09-29T00:39:31;13.10;81.50
67196;DHT22;54122;53.538;49.366;2022-09-29T00:41:57;13.10;81.70
67196;DHT22;54122;53.538;49.366;2022-09-29T00:47:08;13.10;81.70
67196;DHT22;54122;53.538;49.366;2022-09-29T00:49:42;13.10;81.60
67196;DHT22;54122;53.538;49.366;2022-09-29T00:52:17;13.10;81.60
67196;DHT22;54122;53.538;49.366;2022-09-29T00:57:38;13.10;81.60
67196;DHT22;54122;53.538;49.366;2022-09-29T01:00:08;13.10;81.70
67196;DHT22;54122;53.538;49.366;2022-09-29T01:02:35;13.10;81.50
67196;DHT22;54122;53.538;49.366;2022-09-29T01:05:04;13.00;81.60
67196;DHT22;54122;53.538;49.366;2022-09-29T01:07:31;13.10;81.70
67196;DHT22;54122;53.538;49.366;2022-09-29T01:09:58;13.00;81.50
67196;DHT22;54122;53.538;49.366;2022-09-29T01:12:24;13.10;81.50
67196;DHT22;54122;53.538;49.366;2022-09-29T01:14:51;13.00;81.60
67196;DHT22;54122;53.538;49.366;2022-09-29T01:17:18;13.00;81.40
67196;DHT22;54122;53.538;49.366;2022-09-29T01:19:58;13.00;81.20
67196;DHT22;54122;53.538;49.366;2022-09-29T01:22:51;13.00;81.40
67196;DHT22;54122;53.538;49.366;2022-09-29T01:30:13;13.00;81.20
67196;DHT22;54122;53.538;49.366;2022-09-29T01:37:42;13.00;81.00
67196;DHT22;54122;53.538;49.366;2022-09-29T01:40:13;13.00;80.80
67196;DHT22;54122;53.538;49.366;2022-09-29T01:42:43;13.00;80.90
67196;DHT22;54122;53.538;49.366;2022-09-29T01:45:48;13.00;80.80
67196;DHT22;54122;53.538;49.366;2022-09-29T01:48:07;13.00;80.70
67196;DHT22;54122;53.538;49.366;2022-09-29T01:50:41;13.10;80.80
67196;DHT22;54122;53.538;49.366;2022-09-29T01:53:14;13.00;80.80
67196;DHT22;54122;53.538;49.366;2022-09-29T01:55:45;13.10;80.90
67196;DHT22;54122;53.538;49.366;2022-09-29T01:58:29;13.10;80.80
67196;DHT22;54122;53.538;49.366;2022-09-29T02:00:58;13.10;80.70
67196;DHT22;54122;53.538;49.366;2022-09-29T02:03:27;13.00;80.60
67196;DHT22;54122;53.538;49.366;2022-09-29T02:05:56;13.10;80.80
67196;DHT22;54122;53.538;49.366;2022-09-29T02:08:28;13.00;81.00
67196;DHT22;54122;53.538;49.366;2022-09-29T02:11:07;13.00;81.00
67196;DHT22;54122;53.538;49.366;2022-09-29T02:13:42;13.00;81.20
67196;DHT22;54122;53.538;49.366;2022-09-29T02:16:09;13.00;81.20
67196;DHT22;54122;53.538;49.366;2022-09-29T02:18:39;13.00;81.40
67196;DHT22;54122;53.538;49.366;2022-09-29T02:21:07;13.00;81.50
67196;DHT22;54122;53.538;49.366;2022-09-29T02:23:33;13.00;81.80
67196;DHT22;54122;53.538;49.366;2022-09-29T02:25:59;13.00;81.90
67196;DHT22;54122;53.538;49.366;2022-09-29T02:28:27;13.00;82.20
67196;DHT22;54122;53.538;49.366;2022-09-29T02:30:53;13.00;82.40
67196;DHT22;54122;53.538;49.366;2022-09-29T02:33:23;12.90;82.60
67196;DHT22;54122;53.538;49.366;2022-09-29T02:35:58;12.90;83.00
67196;DHT22;54122;53.538;49.366;2022-09-29T02:38:29;12.90;83.10
67196;DHT22;54122;53.538;49.366;2022-09-29T02:41:11;12.90;83.40
67196;DHT22;54122;53.538;49.366;2022-09-29T02:43:57;12.90;83.40
67196;DHT22;54122;53.538;49.366;2022-09-29T02:51:39;13.10;82.80
67196;DHT22;54122;53.538;49.366;2022-09-29T02:54:16;13.10;82.60
67196;DHT22;54122;53.538;49.366;2022-09-29T02:59:30;13.10;82.80
67196;DHT22;54122;53.538;49.366;2022-09-29T03:01:59;13.10;82.70
67196;DHT22;54122;53.538;49.366;2022-09-29T03:04:26;13.10;82.90
67196;DHT22;54122;53.538;49.366;2022-09-29T03:06:52;13.10;83.10
67196;DHT22;54122;53.538;49.366;2022-09-29T03:09:18;13.10;83.20
67196;DHT22;54122;53.538;49.366;2022-09-29T03:11:45;13.10;83.60
67196;DHT22;54122;53.538;49.366;2022-09-29T03:14:11;13.10;83.80
67196;DHT22;54122;53.538;49.366;2022-09-29T03:16:37;13.10;84.00
67196;DHT22;54122;53.538;49.366;2022-09-29T03:19:04;13.10;84.30
67196;DHT22;54122;53.538;49.366;2022-09-29T03:21:30;13.10;84.50
67196;DHT22;54122;53.538;49.366;2022-09-29T03:23:57;13.10;84.60
67196;DHT22;54122;53.538;49.366;2022-09-29T03:26:23;13.20;84.80
67196;DHT22;54122;53.538;49.366;2022-09-29T03:28:49;13.20;84.80
67196;DHT22;54122;53.538;49.366;2022-09-29T03:31:16;13.20;84.90
67196;DHT22;54122;53.538;49.366;2022-09-29T03:33:42;13.20;85.00
67196;DHT22;54122;53.538;49.366;2022-09-29T03:36:08;13.20;85.20
67196;DHT22;54122;53.538;49.366;2022-09-29T03:38:34;13.30;85.20
67196;DHT22;54122;53.538;49.366;2022-09-29T03:41:00;13.30;85.20
67196;DHT22;54122;53.538;49.366;2022-09-29T03:43:26;13.30;85.20
67196;DHT22;54122;53.538;49.366;2022-09-29T03:45:53;13.30;85.50
67196;DHT22;54122;53.538;49.366;2022-09-29T03:48:20;13.30;85.80
67196;DHT22;54122;53.538;49.366;2022-09-29T03:50:48;13.30;86.10
67196;DHT22;54122;53.538;49.366;2022-09-29T03:53:14;13.30;86.50
67196;DHT22;54122;53.538;49.366;2022-09-29T03:55:44;13.30;87.00
67196;DHT22;54122;53.538;49.366;2022-09-29T03:58:10;13.30;87.10
67196;DHT22;54122;53.538;49.366;2022-09-29T04:00:37;13.30;87.60
67196;DHT22;54122;53.538;49.366;2022-09-29T04:03:02;13.30;87.70
67196;DHT22;54122;53.538;49.366;2022-09-29T04:05:29;13.30;88.00
67196;DHT22;54122;53.538;49.366;2022-09-29T04:07:55;13.40;88.10
67196;DHT22;54122;53.538;49.366;2022-09-29T04:10:21;13.50;88.10
67196;DHT22;54122;53.538;49.366;2022-09-29T04:12:47;13.50;87.90
67196;DHT22;54122;53.538;49.366;2022-09-29T04:15:13;13.60;87.90
67196;DHT22;54122;53.538;49.366;2022-09-29T04:17:39;13.70;87.90
67196;DHT22;54122;53.538;49.366;2022-09-29T04:20:05;13.70;87.80
67196;DHT22;54122;53.538;49.366;2022-09-29T04:22:32;13.80;87.80
67196;DHT22;54122;53.538;49.366;2022-09-29T04:24:59;13.80;87.90
67196;DHT22;54122;53.538;49.366;2022-09-29T04:27:25;13.80;88.00
67196;DHT22;54122;53.538;49.366;2022-09-29T04:29:51;13.90;87.70
67196;DHT22;54122;53.538;49.366;2022-09-29T04:32:17;13.90;87.70
67196;DHT22;54122;53.538;49.366;2022-09-29T04:34:43;13.90;87.80
67196;DHT22;54122;53.538;49.366;2022-09-29T04:37:09;13.90;87.80
67196;DHT22;54122;53.538;49.366;2022-09-29T04:39:36;13.90;87.90
67196;DHT22;54122;53.538;49.366;2022-09-29T04:42:02;13.90;89.10
67196;DHT22;54122;53.538;49.366;2022-09-29T04:44:28;13.80;88.30
67196;DHT22;54122;53.538;49.366;2022-09-29T04:46:54;13.80;88.40
67196;DHT22;54122;53.538;49.366;2022-09-29T04:49:20;13.80;88.70
67196;DHT22;54122;53.538;49.366;2022-09-29T04:51:46;13.70;89.00
67196;DHT22;54122;53.538;49.366;2022-09-29T04:54:12;13.70;89.20
67196;DHT22;54122;53.538;49.366;2022-09-29T04:56:38;13.60;89.30
67196;DHT22;54122;53.538;49.366;2022-09-29T04:59:04;13.60;89.90
67196;DHT22;54122;53.538;49.366;2022-09-29T05:01:30;13.50;90.00
67196;DHT22;54122;53.538;49.366;2022-09-29T05:03:57;13.50;90.20
67196;DHT22;54122;53.538;49.366;2022-09-29T05:06:23;13.40;90.40
67196;DHT22;54122;53.538;49.366;2022-09-29T05:08:49;13.40;90.70
67196;DHT22;54122;53.538;49.366;2022-09-29T05:11:15;13.40;90.90
67196;DHT22;54122;53.538;49.366;2022-09-29T05:13:41;13.40;91.00
67196;DHT22;54122;53.538;49.366;2022-09-29T05:16:07;13.40;91.10
67196;DHT22;54122;53.538;49.366;2022-09-29T05:18:33;13.50;91.10
67196;DHT22;54122;53.538;49.366;2022-09-29T05:21:03;13.50;91.20
67196;DHT22;54122;53.538;49.366;2022-09-29T05:23:29;13.50;91.60
67196;DHT22;54122;53.538;49.366;2022-09-29T05:25:59;13.50;91.20
67196;DHT22;54122;53.538;49.366;2022-09-29T05:28:25;13.50;91.50
67196;DHT22;54122;53.538;49.366;2022-09-29T05:30:51;13.50;91.50
67196;DHT22;54122;53.538;49.366;2022-09-29T05:33:17;13.50;91.60
67196;DHT22;54122;53.538;49.366;2022-09-29T05:35:43;13.50;91.60
67196;DHT22;54122;53.538;49.366;2022-09-29T05:38:09;13.50;91.60
67196;DHT22;54122;53.538;49.366;2022-09-29T05:40:35;13.40;91.70
67196;DHT22;54122;53.538;49.366;2022-09-29T05:43:01;13.40;91.80
67196;DHT22;54122;53.538;49.366;2022-09-29T05:45:27;13.40;92.00
67196;DHT22;54122;53.538;49.366;2022-09-29T05:47:54;13.30;92.00
67196;DHT22;54122;53.538;49.366;2022-09-29T05:50:20;13.20;92.30
67196;DHT22;54122;53.538;49.366;2022-09-29T05:52:48;13.20;92.50
67196;DHT22;54122;53.538;49.366;2022-09-29T05:55:15;13.20;92.50
67196;DHT22;54122;53.538;49.366;2022-09-29T05:57:41;13.20;92.90
67196;DHT22;54122;53.538;49.366;2022-09-29T06:00:07;13.10;93.10
67196;DHT22;54122;53.538;49.366;2022-09-29T06:02:33;13.20;93.30
67196;DHT22;54122;53.538;49.366;2022-09-29T06:04:59;13.20;93.40
67196;DHT22;54122;53.538;49.366;2022-09-29T06:07:25;13.20;93.50
67196;DHT22;54122;53.538;49.366;2022-09-29T06:09:51;13.20;93.60
67196;DHT22;54122;53.538;49.366;2022-09-29T06:12:17;13.20;93.60
67196;DHT22;54122;53.538;49.366;2022-09-29T06:14:43;13.30;93.80
67196;DHT22;54122;53.538;49.366;2022-09-29T06:17:09;13.30;93.80
67196;DHT22;54122;53.538;49.366;2022-09-29T06:19:35;13.40;93.90
67196;DHT22;54122;53.538;49.366;2022-09-29T06:22:01;13.40;94.10
67196;DHT22;54122;53.538;49.366;2022-09-29T06:24:30;13.40;94.30
67196;DHT22;54122;53.538;49.366;2022-09-29T06:26:56;13.40;94.50
67196;DHT22;54122;53.538;49.366;2022-09-29T06:29:22;13.40;94.60
67196;DHT22;54122;53.538;49.366;2022-09-29T06:31:48;13.40;94.80
67196;DHT22;54122;53.538;49.366;2022-09-29T06:34:14;13.50;94.90
67196;DHT22;54122;53.538;49.366;2022-09-29T06:36:41;13.60;94.90
67196;DHT22;54122;53.538;49.366;2022-09-29T06:39:26;13.60;94.70
67196;DHT22;54122;53.538;49.366;2022-09-29T06:41:52;13.70;94.80
67196;DHT22;54122;53.538;49.366;2022-09-29T06:44:21;13.80;94.60
67196;DHT22;54122;53.538;49.366;2022-09-29T06:46:49;13.80;94.50
67196;DHT22;54122;53.538;49.366;2022-09-29T06:49:16;13.90;94.40
67196;DHT22;54122;53.538;49.366;2022-09-29T06:51:42;13.90;94.30
67196;DHT22;54122;53.538;49.366;2022-09-29T06:54:12;13.90;94.40
67196;DHT22;54122;53.538;49.366;2022-09-29T06:56:38;13.90;94.30
67196;DHT22;54122;53.538;49.366;2022-09-29T06:59:04;13.80;94.20
67196;DHT22;54122;53.538;49.366;2022-09-29T07:01:30;13.80;94.60
67196;DHT22;54122;53.538;49.366;2022-09-29T07:03:57;13.80;95.00
67196;DHT22;54122;53.538;49.366;2022-09-29T07:06:25;13.80;95.00
67196;DHT22;54122;53.538;49.366;2022-09-29T07:08:56;13.70;94.80
67196;DHT22;54122;53.538;49.366;2022-09-29T07:11:23;13.70;95.10
67196;DHT22;54122;53.538;49.366;2022-09-29T07:13:49;13.70;95.50
67196;DHT22;54122;53.538;49.366;2022-09-29T07:16:16;13.70;95.50
67196;DHT22;54122;53.538;49.366;2022-09-29T07:18:42;13.70;95.70
67196;DHT22;54122;53.538;49.366;2022-09-29T07:21:10;13.70;95.80
67196;DHT22;54122;53.538;49.366;2022-09-29T07:23:37;13.70;95.70
67196;DHT22;54122;53.538;49.366;2022-09-29T07:26:04;13.70;95.70
67196;DHT22;54122;53.538;49.366;2022-09-29T07:28:30;13.70;95.90
67196;DHT22;54122;53.538;49.366;2022-09-29T07:30:57;13.70;96.10
67196;DHT22;54122;53.538;49.366;2022-09-29T07:33:23;13.80;96.30
67196;DHT22;54122;53.538;49.366;2022-09-29T07:35:52;13.80;96.10
67196;DHT22;54122;53.538;49.366;2022-09-29T07:38:18;13.90;95.80
67196;DHT22;54122;53.538;49.366;2022-09-29T07:40:44;13.90;96.00
67196;DHT22;54122;53.538;49.366;2022-09-29T07:43:10;14.00;95.80
67196;DHT22;54122;53.538;49.366;2022-09-29T07:45:36;14.00;95.70
67196;DHT22;54122;53.538;49.366;2022-09-29T07:48:02;14.00;95.70
67196;DHT22;54122;53.538;49.366;2022-09-29T07:50:28;14.10;95.50
67196;DHT22;54122;53.538;49.366;2022-09-29T07:52:56;14.10;95.60
67196;DHT22;54122;53.538;49.366;2022-09-29T07:55:22;14.10;95.50
67196;DHT22;54122;53.538;49.366;2022-09-29T07:57:48;14.00;95.20
67196;DHT22;54122;53.538;49.366;2022-09-29T08:00:14;14.00;95.50
67196;DHT22;54122;53.538;49.366;2022-09-29T08:02:42;14.00;95.90
67196;DHT22;54122;53.538;49.366;2022-09-29T08:05:08;13.90;95.90
67196;DHT22;54122;53.538;49.366;2022-09-29T08:07:35;14.00;96.10
67196;DHT22;54122;53.538;49.366;2022-09-29T08:10:00;13.90;96.00
67196;DHT22;54122;53.538;49.366;2022-09-29T08:12:27;14.00;96.40
67196;DHT22;54122;53.538;49.366;2022-09-29T08:14:53;14.00;96.10
67196;DHT22;54122;53.538;49.366;2022-09-29T08:17:19;14.00;96.10
67196;DHT22;54122;53.538;49.366;2022-09-29T08:19:45;14.00;96.20
67196;DHT22;54122;53.538;49.366;2022-09-29T08:22:12;14.10;96.30
67196;DHT22;54122;53.538;49.366;2022-09-29T08:24:38;14.00;96.10
67196;DHT22;54122;53.538;49.366;2022-09-29T08:27:05;14.10;96.20
67196;DHT22;54122;53.538;49.366;2022-09-29T08:29:32;14.20;96.30
67196;DHT22;54122;53.538;49.366;2022-09-29T08:31:58;14.20;95.90
67196;DHT22;54122;53.538;49.366;2022-09-29T08:34:24;14.20;96.00
67196;DHT22;54122;53.538;49.366;2022-09-29T08:36:50;14.20;95.90
67196;DHT22;54122;53.538;49.366;2022-09-29T08:39:16;14.20;96.00
67196;DHT22;54122;53.538;49.366;2022-09-29T08:46:56;14.20;95.90
67196;DHT22;54122;53.538;49.366;2022-09-29T08:49:26;14.10;95.80
67196;DHT22;54122;53.538;49.366;2022-09-29T08:51:55;14.00;96.10
67196;DHT22;54122;53.538;49.366;2022-09-29T08:54:24;14.10;96.40
67196;DHT22;54122;53.538;49.366;2022-09-29T08:56:52;14.10;96.40
67196;DHT22;54122;53.538;49.366;2022-09-29T08:59:18;14.10;96.30
67196;DHT22;54122;53.538;49.366;2022-09-29T09:07:14;14.20;96.00
67196;DHT22;54122;53.538;49.366;2022-09-29T09:09:59;14.20;96.10
67196;DHT22;54122;53.538;49.366;2022-09-29T09:22:21;14.30;96.50
67196;DHT22;54122;53.538;49.366;2022-09-29T09:27:22;14.40;96.20
67196;DHT22;54122;53.538;49.366;2022-09-29T09:29:49;14.40;96.00
67196;DHT22;54122;53.538;49.366;2022-09-29T09:32:20;14.50;96.00
67196;DHT22;54122;53.538;49.366;2022-09-29T09:37:29;14.60;95.70
67196;DHT22;54122;53.538;49.366;2022-09-29T09:40:04;14.70;95.60
67196;DHT22;54122;53.538;49.366;2022-09-29T09:42:32;14.80;95.50
67196;DHT22;54122;53.538;49.366;2022-09-29T09:45:01;14.80;95.10
67196;DHT22;54122;53.538;49.366;2022-09-29T09:49:55;15.10;94.90
67196;DHT22;54122;53.538;49.366;2022-09-29T09:52:38;15.10;94.60
67196;DHT22;54122;53.538;49.366;2022-09-29T09:55:12;15.00;94.70
67196;DHT22;54122;53.538;49.366;2022-09-29T10:00:41;15.10;94.90
67196;DHT22;54122;53.538;49.366;2022-09-29T10:03:09;15.00;94.70
67196;DHT22;54122;53.538;49.366;2022-09-29T10:05:38;15.00;94.80
67196;DHT22;54122;53.538;49.366;2022-09-29T10:08:05;15.00;94.70
67196;DHT22;54122;53.538;49.366;2022-09-29T10:10:32;14.90;94.70
67196;DHT22;54122;53.538;49.366;2022-09-29T10:15:28;14.90;94.70
67196;DHT22;54122;53.538;49.366;2022-09-29T10:18:06;14.80;94.90
67196;DHT22;54122;53.538;49.366;2022-09-29T10:20:36;14.80;95.00
67196;DHT22;54122;53.538;49.366;2022-09-29T10:25:51;14.80;95.30
67196;DHT22;54122;53.538;49.366;2022-09-29T10:28:19;14.80;95.30
67196;DHT22;54122;53.538;49.366;2022-09-29T10:30:45;14.80;95.20
67196;DHT22;54122;53.538;49.366;2022-09-29T10:33:16;14.80;95.20
67196;DHT22;54122;53.538;49.366;2022-09-29T10:35:43;14.90;95.10
67196;DHT22;54122;53.538;49.366;2022-09-29T10:40:58;14.90;94.80
67196;DHT22;54122;53.538;49.366;2022-09-29T10:43:30;14.90;95.00
67196;DHT22;54122;53.538;49.366;2022-09-29T10:45:57;14.90;95.20
67196;DHT22;54122;53.538;49.366;2022-09-29T10:48:25;15.00;95.50
67196;DHT22;54122;53.538;49.366;2022-09-29T10:53:22;15.00;95.10
67196;DHT22;54122;53.538;49.366;2022-09-29T10:55:50;15.00;95.20
67196;DHT22;54122;53.538;49.366;2022-09-29T10:58:30;15.10;95.00
67196;DHT22;54122;53.538;49.366;2022-09-29T11:01:07;15.00;94.90
67196;DHT22;54122;53.538;49.366;2022-09-29T11:03:33;15.00;94.90
67196;DHT22;54122;53.538;49.366;2022-09-29T11:06:02;15.10;95.10
67196;DHT22;54122;53.538;49.366;2022-09-29T11:08:29;15.10;94.80
67196;DHT22;54122;53.538;49.366;2022-09-29T11:11:05;15.20;94.90
67196;DHT22;54122;53.538;49.366;2022-09-29T11:13:33;15.30;94.90
67196;DHT22;54122;53.538;49.366;2022-09-29T11:16:16;15.40;94.90
67196;DHT22;54122;53.538;49.366;2022-09-29T11:18:43;15.50;94.80
67196;DHT22;54122;53.538;49.366;2022-09-29T11:21:21;15.60;94.30
67196;DHT22;54122;53.538;49.366;2022-09-29T11:26:24;15.70;94.00
67196;DHT22;54122;53.538;49.366;2022-09-29T11:31:25;15.80;94.00
67196;DHT22;54122;53.538;49.366;2022-09-29T11:39:17;15.80;93.40
67196;DHT22;54122;53.538;49.366;2022-09-29T11:42:14;15.80;93.50
67196;DHT22;54122;53.538;49.366;2022-09-29T11:47:19;15.80;93.70
67196;DHT22;54122;53.538;49.366;2022-09-29T11:59:46;15.90;93.80
67196;DHT22;54122;53.538;49.366;2022-09-29T12:07:28;15.80;93.50
67196;DHT22;54122;53.538;49.366;2022-09-29T12:17:38;15.50;94.30
67196;DHT22;54122;53.538;49.366;2022-09-29T12:20:13;15.50;94.50
67196;DHT22;54122;53.538;49.366;2022-09-29T12:22:42;15.50;94.60
67196;DHT22;54122;53.538;49.366;2022-09-29T12:25:11;15.40;95.00
67196;DHT22;54122;53.538;49.366;2022-09-29T12:27:39;15.40;95.00
67196;DHT22;54122;53.538;49.366;2022-09-29T12:30:13;15.40;95.00
67196;DHT22;54122;53.538;49.366;2022-09-29T12:35:19;15.30;95.50
67196;DHT22;54122;53.538;49.366;2022-09-29T12:37:51;15.30;95.60
67196;DHT22;54122;53.538;49.366;2022-09-29T12:40:21;15.30;95.50
67196;DHT22;54122;53.538;49.366;2022-09-29T12:48:24;15.20;95.50
67196;DHT22;54122;53.538;49.366;2022-09-29T12:50:59;15.20;95.40
67196;DHT22;54122;53.538;49.366;2022-09-29T12:53:39;15.20;95.70
67196;DHT22;54122;53.538;49.366;2022-09-29T12:58:47;15.30;95.70
67196;DHT22;54122;53.538;49.366;2022-09-29T13:01:36;15.30;95.80
67196;DHT22;54122;53.538;49.366;2022-09-29T13:11:57;15.30;95.50
67196;DHT22;54122;53.538;49.366;2022-09-29T13:27:43;15.20;95.70
67196;DHT22;54122;53.538;49.366;2022-09-29T13:32:40;15.20;95.80
67196;DHT22;54122;53.538;49.366;2022-09-29T13:35:10;15.20;95.90
67196;DHT22;54122;53.538;49.366;2022-09-29T13:38:13;15.20;95.90
67196;DHT22;54122;53.538;49.366;2022-09-29T13:40:30;15.20;95.90
67196;DHT22;54122;53.538;49.366;2022-09-29T13:42:58;15.20;95.90
67196;DHT22;54122;53.538;49.366;2022-09-29T13:47:59;15.20;95.60
67196;DHT22;54122;53.538;49.366;2022-09-29T13:50:47;15.10;95.80
67196;DHT22;54122;53.538;49.366;2022-09-29T13:56:10;15.10;96.20
67196;DHT22;54122;53.538;49.366;2022-09-29T14:01:09;15.10;96.30
67196;DHT22;54122;53.538;49.366;2022-09-29T14:03:37;15.10;96.20
67196;DHT22;54122;53.538;49.366;2022-09-29T14:08:30;15.10;96.40
67196;DHT22;54122;53.538;49.366;2022-09-29T14:11:02;15.10;96.50
67196;DHT22;54122;53.538;49.366;2022-09-29T14:16:13;15.00;96.40
67196;DHT22;54122;53.538;49.366;2022-09-29T14:21:44;15.00;96.50
67196;DHT22;54122;53.538;49.366;2022-09-29T14:27:13;14.90;96.50
67196;DHT22;54122;53.538;49.366;2022-09-29T14:30:11;14.90;97.20
67196;DHT22;54122;53.538;49.366;2022-09-29T14:32:56;14.80;97.00
67196;DHT22;54122;53.538;49.366;2022-09-29T14:35:26;14.80;97.20
67196;DHT22;54122;53.538;49.366;2022-09-29T14:37:57;14.80;97.40
67196;DHT22;54122;53.538;49.366;2022-09-29T14:40:24;14.80;97.50
67196;DHT22;54122;53.538;49.366;2022-09-29T14:45:29;14.70;97.40
67196;DHT22;54122;53.538;49.366;2022-09-29T14:48:24;14.70;97.40
67196;DHT22;54122;53.538;49.366;2022-09-29T14:51:15;14.70;97.50
67196;DHT22;54122;53.538;49.366;2022-09-29T14:59:11;14.60;98.00
67196;DHT22;54122;53.538;49.366;2022-09-29T15:01:53;14.60;97.60
67196;DHT22;54122;53.538;49.366;2022-09-29T15:04:23;14.60;97.60
67196;DHT22;54122;53.538;49.366;2022-09-29T15:06:50;14.60;97.70
67196;DHT22;54122;53.538;49.366;2022-09-29T15:09:17;14.60;97.70
67196;DHT22;54122;53.538;49.366;2022-09-29T15:11:47;14.70;97.80
67196;DHT22;54122;53.538;49.366;2022-09-29T15:22:17;14.60;97.60
67196;DHT22;54122;53.538;49.366;2022-09-29T15:27:20;14.60;97.60
67196;DHT22;54122;53.538;49.366;2022-09-29T15:29:47;14.50;97.60
67196;DHT22;54122;53.538;49.366;2022-09-29T15:32:17;14.50;97.60
67196;DHT22;54122;53.538;49.366;2022-09-29T15:34:44;14.50;97.70
67196;DHT22;54122;53.538;49.366;2022-09-29T15:37:10;14.40;97.80
67196;DHT22;54122;53.538;49.366;2022-09-29T15:42:12;14.40;97.90
67196;DHT22;54122;53.538;49.366;2022-09-29T15:44:43;14.40;98.00
67196;DHT22;54122;53.538;49.366;2022-09-29T15:47:17;14.40;97.90
67196;DHT22;54122;53.538;49.366;2022-09-29T15:49:51;14.40;97.90
67196;DHT22;54122;53.538;49.366;2022-09-29T15:52:17;14.40;97.90
67196;DHT22;54122;53.538;49.366;2022-09-29T15:54:47;14.40;97.90
67196;DHT22;54122;53.538;49.366;2022-09-29T15:57:58;14.40;97.90
67196;DHT22;54122;53.538;49.366;2022-09-29T16:05:33;14.40;97.70
67196;DHT22;54122;53.538;49.366;2022-09-29T16:08:05;14.40;97.90
67196;DHT22;54122;53.538;49.366;2022-09-29T16:10:33;14.40;97.90
67196;DHT22;54122;53.538;49.366;2022-09-29T16:13:00;14.50;97.90
67196;DHT22;54122;53.538;49.366;2022-09-29T16:15:30;14.50;97.70
67196;DHT22;54122;53.538;49.366;2022-09-29T16:17:58;14.50;97.60
67196;DHT22;54122;53.538;49.366;2022-09-29T16:20:29;14.50;97.60
67196;DHT22;54122;53.538;49.366;2022-09-29T16:23:04;14.50;97.60
67196;DHT22;54122;53.538;49.366;2022-09-29T16:25:30;14.60;97.60
67196;DHT22;54122;53.538;49.366;2022-09-29T16:28:02;14.60;97.60
67196;DHT22;54122;53.538;49.366;2022-09-29T16:30:35;14.70;97.50
67196;DHT22;54122;53.538;49.366;2022-09-29T16:33:12;14.70;97.20
67196;DHT22;54122;53.538;49.366;2022-09-29T16:38:17;14.80;97.10
67196;DHT22;54122;53.538;49.366;2022-09-29T16:40:44;14.80;96.90
67196;DHT22;54122;53.538;49.366;2022-09-29T16:43:19;14.80;96.80
67196;DHT22;54122;53.538;49.366;2022-09-29T16:45:49;14.70;96.70
67196;DHT22;54122;53.538;49.366;2022-09-29T16:48:16;14.80;96.80
67196;DHT22;54122;53.538;49.366;2022-09-29T16:50:46;14.70;96.90
67196;DHT22;54122;53.538;49.366;2022-09-29T16:53:25;14.70;96.90
67196;DHT22;54122;53.538;49.366;2022-09-29T16:55:56;14.70;97.00
67196;DHT22;54122;53.538;49.366;2022-09-29T16:58:23;14.70;97.10
67196;DHT22;54122;53.538;49.366;2022-09-29T17:00:52;14.80;97.10
67196;DHT22;54122;53.538;49.366;2022-09-29T17:03:18;14.80;97.00
67196;DHT22;54122;53.538;49.366;2022-09-29T17:05:44;14.70;96.70
67196;DHT22;54122;53.538;49.366;2022-09-29T17:08:20;14.70;96.70
67196;DHT22;54122;53.538;49.366;2022-09-29T17:10:50;14.60;96.80
67196;DHT22;54122;53.538;49.366;2022-09-29T17:13:16;14.60;96.80
67196;DHT22;54122;53.538;49.366;2022-09-29T17:15:43;14.60;96.80
67196;DHT22;54122;53.538;49.366;2022-09-29T17:18:14;14.50;96.90
67196;DHT22;54122;53.538;49.366;2022-09-29T17:20:40;14.50;97.00
67196;DHT22;54122;53.538;49.366;2022-09-29T17:23:06;14.50;97.20
67196;DHT22;54122;53.538;49.366;2022-09-29T17:25:34;14.50;97.40
67196;DHT22;54122;53.538;49.366;2022-09-29T17:28:04;14.50;97.20
67196;DHT22;54122;53.538;49.366;2022-09-29T17:30:42;14.60;97.10
67196;DHT22;54122;53.538;49.366;2022-09-29T17:33:09;14.50;96.80
67196;DHT22;54122;53.538;49.366;2022-09-29T17:35:40;14.50;96.90
67196;DHT22;54122;53.538;49.366;2022-09-29T17:38:06;14.50;96.90
67196;DHT22;54122;53.538;49.366;2022-09-29T17:40:35;14.40;96.90
67196;DHT22;54122;53.538;49.366;2022-09-29T17:43:02;14.40;97.10
67196;DHT22;54122;53.538;49.366;2022-09-29T17:45:29;14.40;97.30
67196;DHT22;54122;53.538;49.366;2022-09-29T17:47:56;14.30;97.40
67196;DHT22;54122;53.538;49.366;2022-09-29T17:50:31;14.40;97.90
67196;DHT22;54122;53.538;49.366;2022-09-29T17:52:58;14.30;97.40
67196;DHT22;54122;53.538;49.366;2022-09-29T17:55:24;14.30;97.50
67196;DHT22;54122;53.538;49.366;2022-09-29T17:57:51;14.40;97.60
67196;DHT22;54122;53.538;49.366;2022-09-29T18:00:25;14.30;97.40
67196;DHT22;54122;53.538;49.366;2022-09-29T18:02:52;14.30;97.40
67196;DHT22;54122;53.538;49.366;2022-09-29T18:05:22;14.20;97.70
67196;DHT22;54122;53.538;49.366;2022-09-29T18:07:51;14.20;97.90
67196;DHT22;54122;53.538;49.366;2022-09-29T18:12:46;14.20;97.80
67196;DHT22;54122;53.538;49.366;2022-09-29T18:15:12;14.20;97.90
67196;DHT22;54122;53.538;49.366;2022-09-29T18:17:40;14.20;97.80
67196;DHT22;54122;53.538;49.366;2022-09-29T18:20:16;14.10;97.80
67196;DHT22;54122;53.538;49.366;2022-09-29T18:22:43;14.10;97.90
67196;DHT22;54122;53.538;49.366;2022-09-29T18:25:10;14.10;98.00
67196;DHT22;54122;53.538;49.366;2022-09-29T18:27:36;14.10;98.00
67196;DHT22;54122;53.538;49.366;2022-09-29T18:30:05;14.10;98.10
67196;DHT22;54122;53.538;49.366;2022-09-29T18:32:31;14.10;98.10